Time;durP1;ratioP1;P1;durP2;ratioP2;P2;SDS_P1;SDS_P2;PMS_P1;PMS_P2;Temp;Humidity;BMP_temperature;BMP_pressure;BME280_temperature;BME280_humidity;BME280_pressure;Samples;Min_cycle;Max_cycle;Signal;HPM_P1;HPM_P2
2021/12/10 00:11:38;137917.00;0.46;238.98;18205.00;0.06;32.16;;;;;11.10;1.00;;;;;;2495361;40;3497;31
2021/12/10 00:24:03;115705.00;0.39;200.67;0.00;0.00;0.62;;;;;10.70;1.00;;;;;;2270871;61;939;-87
2021/12/10 00:29:03;230285.00;0.77;398.04;0.00;0.00;0.62;;;;;10.20;1.00;;;;;;2274840;61;1331;-89
2021/12/10 00:34:15;122783.00;0.41;212.88;0.00;0.00;0.62;;;;;9.90;1.00;;;;;;2271362;61;1291;-88
2021/12/10 00:39:15;56631.00;0.19;98.65;0.00;0.00;0.62;;;;;9.90;1.00;;;;;;2271019;61;1090;-87
2021/12/10 00:41:43;48465.00;0.16;84.53;0.00;0.00;0.62;;;;;10.00;1.00;;;;;;2269300;61;858;-88
2021/12/10 00:54:11;214934.00;0.72;371.63;26617.00;0.09;46.73;;;;;9.60;1.00;;;;;;2267090;61;1054;-87
2021/12/10 01:01:45;98185.00;0.33;170.44;0.00;0.00;0.62;;;;;9.40;1.00;;;;;;2278848;61;1378;-88
2021/12/10 01:29:36;109558.00;0.37;190.07;0.00;0.00;0.62;;;;;9.00;1.00;;;;;;2503343;55;3643;31
2021/12/10 01:39:33;939854.00;3.13;1626.23;0.00;0.00;0.62;;;;;7.50;1.00;;;;;;2485471;40;2040;31
2021/12/10 01:44:36;660870.00;2.20;1139.45;0.00;0.00;0.62;;;;;7.20;1.00;;;;;;2269734;61;1404;-86
2021/12/10 02:01:56;1240994.00;4.14;2164.52;50370.00;0.17;87.83;;;;;6.70;1.00;;;;;;2517584;39;2096;31
2021/12/10 02:04:27;1117607.00;3.73;1941.94;0.00;0.00;0.62;;;;;6.50;1.00;;;;;;2265589;61;1216;-86
2021/12/10 02:09:23;1324192.00;4.41;2316.45;0.00;0.00;0.62;;;;;6.50;1.00;;;;;;2277581;61;1369;-86
2021/12/10 02:11:52;801845.00;2.67;1384.34;4446.00;0.01;8.33;;;;;6.60;1.00;;;;;;2263056;61;2027;-86
2021/12/10 02:14:20;600687.00;2.00;1035.41;0.00;0.00;0.62;;;;;6.60;1.00;;;;;;2263664;61;1199;-86
2021/12/10 02:16:48;715426.00;2.38;1234.00;52400.00;0.17;91.34;;;;;6.70;1.00;;;;;;2259360;61;1301;-87
2021/12/10 02:19:18;696903.00;2.32;1201.87;0.00;0.00;0.62;;;;;6.40;1.00;;;;;;2259203;61;1077;-86
2021/12/10 02:21:46;696493.00;2.32;1201.16;60801.00;0.20;105.86;;;;;6.20;1.00;;;;;;2259346;61;1077;-86
2021/12/10 02:24:14;646709.00;2.16;1114.94;19018.00;0.06;33.57;;;;;6.30;1.00;;;;;;2248853;61;1173;-87
2021/12/10 02:29:10;1333865.00;4.45;2334.22;0.00;0.00;0.62;;;;;6.70;1.00;;;;;;2269250;61;1375;-85
2021/12/10 02:31:39;935251.00;3.12;1618.12;0.00;0.00;0.62;;;;;6.60;1.00;;;;;;2260567;61;1920;-85
2021/12/10 02:34:07;584363.00;1.95;1007.23;16389.00;0.05;29.02;;;;;6.80;1.00;;;;;;2257556;61;1121;-85
2021/12/10 02:41:36;926584.00;3.09;1602.86;0.00;0.00;0.62;;;;;7.20;1.00;;;;;;2269172;61;1191;-87
2021/12/10 02:44:05;641360.00;2.14;1105.69;0.00;0.00;0.62;;;;;7.30;1.00;;;;;;2267517;61;1152;-87
2021/12/10 02:49:00;1436235.00;4.79;2523.70;0.00;0.00;0.62;;;;;7.30;1.00;;;;;;2273415;61;1246;-87
2021/12/10 02:51:28;762220.00;2.54;1315.31;0.00;0.00;0.62;;;;;7.60;1.00;;;;;;2263211;61;2001;-87
2021/12/10 02:53:57;668265.00;2.23;1152.25;0.00;0.00;0.62;;;;;8.10;1.00;;;;;;2253559;61;1148;-87
2021/12/10 02:56:24;546452.00;1.82;941.84;4937.00;0.02;9.18;;;;;8.40;1.00;;;;;;2505759;39;2382;31
2021/12/10 02:58:58;1310901.00;4.37;2292.07;19406.00;0.06;34.24;;;;;8.50;1.00;;;;;;2257546;61;1391;-86
2021/12/10 03:01:30;402598.00;1.34;694.27;0.00;0.00;0.62;;;;;8.40;1.00;;;;;;2248576;61;1176;-85
2021/12/10 03:03:58;868489.00;2.89;1500.84;45040.00;0.15;78.61;;;;;7.90;1.00;;;;;;2255458;61;1177;-85
2021/12/10 03:11:32;939418.00;3.13;1625.46;0.00;0.00;0.62;;;;;7.70;1.00;;;;;;2273451;61;1898;-87
2021/12/10 03:18:56;814158.00;2.71;1405.83;0.00;0.00;0.62;;;;;8.10;1.00;;;;;;2265341;61;1392;-86
2021/12/10 03:21:23;634453.00;2.11;1093.75;0.00;0.00;0.62;;;;;8.10;1.00;;;;;;2251223;61;1048;-86
2021/12/10 03:28:51;1089800.00;3.63;1892.19;0.00;0.00;0.62;;;;;8.80;1.00;;;;;;2265061;61;1361;-85
2021/12/10 03:31:20;571717.00;1.91;985.41;14310.00;0.05;25.42;;;;;8.80;1.00;;;;;;2263776;61;1994;-86
2021/12/10 03:33:48;517807.00;1.73;892.49;0.00;0.00;0.62;;;;;8.60;1.00;;;;;;2263878;61;1078;-86
2021/12/10 03:38:45;1105245.00;3.68;1919.81;2590.00;0.01;5.11;;;;;8.70;1.00;;;;;;2269628;61;1404;-86
2021/12/10 03:41:13;635268.00;2.12;1095.16;0.00;0.00;0.62;;;;;8.80;1.00;;;;;;2268217;61;1143;-86
2021/12/10 03:51:07;1115022.00;3.72;1937.31;0.00;0.00;0.62;;;;;8.30;1.00;;;;;;2273778;61;1956;-85
2021/12/10 03:53:35;582551.00;1.94;1004.10;0.00;0.00;0.62;;;;;8.10;1.00;;;;;;2271894;61;1073;-87
2021/12/10 03:56:08;638991.00;2.13;1101.59;0.00;0.00;0.62;;;;;7.80;1.00;;;;;;2264751;61;1271;-87
2021/12/10 04:01:06;1093207.00;3.64;1898.28;25129.00;0.08;44.15;;;;;7.50;1.00;;;;;;2272807;61;1426;-86
2021/12/10 04:03:34;568927.00;1.90;980.60;0.00;0.00;0.62;;;;;7.30;1.00;;;;;;2271334;61;1168;-85
2021/12/10 04:06:02;659579.00;2.20;1137.21;0.00;0.00;0.62;;;;;7.30;1.00;;;;;;2271975;61;1149;-85
2021/12/10 04:08:30;737457.00;2.46;1272.26;0.00;0.00;0.62;;;;;7.30;1.00;;;;;;2267542;61;847;-86
2021/12/10 04:13:27;1181976.00;3.94;2057.67;5024.00;0.02;9.33;;;;;8.00;1.00;;;;;;2272677;61;1441;-86
2021/12/10 04:15:55;806676.00;2.69;1392.77;0.00;0.00;0.62;;;;;7.90;1.00;;;;;;2262721;61;1022;-86
2021/12/10 04:20:52;940706.00;3.14;1627.73;0.00;0.00;0.62;;;;;8.20;1.00;;;;;;2273421;61;1440;-86
2021/12/10 04:23:21;600490.00;2.00;1035.07;34364.00;0.11;60.14;;;;;8.60;1.00;;;;;;2271611;61;1072;-87
2021/12/10 04:25:48;659150.00;2.20;1136.47;0.00;0.00;0.62;;;;;8.40;1.00;;;;;;2262731;61;1196;-87
2021/12/10 04:30:46;944320.00;3.15;1634.10;0.00;0.00;0.62;;;;;8.00;1.00;;;;;;2272751;61;1963;-85
2021/12/10 04:33:15;739285.00;2.46;1275.43;52083.00;0.17;90.79;;;;;8.20;1.00;;;;;;2258679;61;1050;-85
2021/12/10 04:35:43;576482.00;1.92;993.63;56106.00;0.19;97.74;;;;;8.20;1.00;;;;;;2254502;61;1114;-86
2021/12/10 04:40:39;858753.00;2.86;1483.79;0.00;0.00;0.62;;;;;8.70;1.00;;;;;;2268750;61;1418;-86
2021/12/10 04:43:06;578645.00;1.93;997.36;0.00;0.00;0.62;;;;;8.50;1.00;;;;;;2267913;61;1109;-86
2021/12/10 04:45:33;651246.00;2.17;1122.79;13402.00;0.04;23.84;;;;;8.40;1.00;;;;;;2267469;61;1101;-87
2021/12/10 04:50:30;1228438.00;4.09;2141.72;0.00;0.00;0.62;;;;;7.80;1.00;;;;;;2273534;61;1907;-85
2021/12/10 04:52:58;629634.00;2.10;1085.42;0.00;0.00;0.62;;;;;7.90;1.00;;;;;;2271712;61;1092;-86
2021/12/10 04:55:25;581002.00;1.94;1001.43;18897.00;0.06;33.36;;;;;8.00;1.00;;;;;;2264560;61;1220;-86
2021/12/10 05:02:51;1279862.00;4.27;2235.30;0.00;0.00;0.62;;;;;7.10;1.00;;;;;;2269024;61;1403;-85
2021/12/10 05:10:18;950509.00;3.17;1645.01;39147.00;0.13;68.41;;;;;7.30;1.00;;;;;;2269014;61;1409;-86
2021/12/10 05:27:37;1009854.00;3.37;1749.93;0.00;0.00;0.62;;;;;6.80;1.00;;;;;;2385988;40;1706;31
2021/12/10 05:42:27;914729.00;3.05;1582.00;19762.00;0.07;34.86;;;;;8.20;1.00;;;;;;2270360;61;1399;-85
2021/12/10 05:49:51;1170371.00;3.90;2036.74;18393.00;0.06;32.49;;;;;9.20;1.00;;;;;;2273872;61;1354;-86
2021/12/10 05:54:50;1058890.00;3.53;1837.06;0.00;0.00;0.62;;;;;9.90;1.00;;;;;;2269643;61;1315;-83
2021/12/10 05:57:17;554548.00;1.85;955.80;0.00;0.00;0.62;;;;;9.80;1.00;;;;;;2268212;61;1448;-84
2021/12/10 05:59:44;478978.00;1.60;825.64;6694.00;0.02;12.22;;;;;9.90;1.00;;;;;;2268186;61;1165;-86
2021/12/10 06:07:09;1176241.00;3.92;2047.32;30519.00;0.10;53.48;;;;;9.30;1.00;;;;;;2273996;61;1349;-84
2021/12/10 06:09:36;550018.00;1.83;947.99;0.00;0.00;0.62;;;;;9.10;1.00;;;;;;2267680;61;1084;-86
2021/12/10 06:27:01;624815.00;2.08;1077.09;0.00;0.00;0.62;;;;;7.80;1.00;;;;;;2272456;61;1434;-85
2021/12/10 06:29:28;445454.00;1.48;767.96;0.00;0.00;0.62;;;;;8.30;1.00;;;;;;2270750;61;1171;-84
2021/12/10 06:31:56;318174.00;1.06;549.16;10048.00;0.03;18.03;;;;;8.30;1.00;;;;;;2271034;61;1927;-85
2021/12/10 06:34:24;367957.00;1.23;634.73;0.00;0.00;0.62;;;;;8.10;1.00;;;;;;2267176;61;1144;-85
2021/12/10 06:36:51;547763.00;1.83;944.10;0.00;0.00;0.62;;;;;7.90;1.00;;;;;;2257011;61;1419;-84
2021/12/10 06:39:20;316878.00;1.06;546.93;0.00;0.00;0.62;;;;;7.70;1.00;;;;;;2262207;61;1065;-84
2021/12/10 06:41:49;342854.00;1.14;591.58;0.00;0.00;0.62;;;;;7.70;1.00;;;;;;2252280;61;1265;-84
2021/12/10 06:44:18;483413.00;1.61;833.27;0.00;0.00;0.62;;;;;7.70;1.00;;;;;;2258609;61;1175;-84
2021/12/10 06:46:45;365775.00;1.22;630.97;0.00;0.00;0.62;;;;;7.50;1.00;;;;;;2257981;61;1415;-85
2021/12/10 06:49:13;362238.00;1.21;624.90;0.00;0.00;0.62;;;;;7.10;1.00;;;;;;2254736;61;1255;-84
2021/12/10 06:51:40;223455.00;0.74;386.29;0.00;0.00;0.62;;;;;6.70;1.00;;;;;;2261722;61;1920;-83
2021/12/10 06:54:07;343793.00;1.15;593.19;0.00;0.00;0.62;;;;;6.20;1.00;;;;;;2264088;61;1188;-83
2021/12/10 06:56:36;404894.00;1.35;698.22;0.00;0.00;0.62;;;;;6.00;1.00;;;;;;2258186;61;1242;-85
2021/12/10 06:59:04;480691.00;1.60;828.59;0.00;0.00;0.62;;;;;5.70;1.00;;;;;;2252375;61;1172;-84
2021/12/10 07:01:35;385897.00;1.29;665.56;0.00;0.00;0.62;;;;;6.10;1.00;;;;;;2252312;61;1237;-84
2021/12/10 07:04:09;539288.00;1.80;929.50;20201.00;0.07;35.62;;;;;6.10;1.00;;;;;;2246046;61;1280;-84
2021/12/10 07:06:38;295744.00;0.99;510.60;0.00;0.00;0.62;;;;;6.30;1.00;;;;;;2253061;61;1318;-85
2021/12/10 07:09:12;226087.00;0.75;390.82;0.00;0.00;0.62;;;;;6.40;1.00;;;;;;2246758;61;1221;-84
2021/12/10 07:11:39;65855.00;0.22;114.60;0.00;0.00;0.62;;;;;6.30;1.00;;;;;;2250490;61;1987;-85
2021/12/10 07:14:06;69903.00;0.23;121.59;0.00;0.00;0.62;;;;;6.00;1.00;;;;;;2256535;61;1163;-85
2021/12/10 07:19:05;261815.00;0.87;452.27;0.00;0.00;0.62;;;;;5.20;1.00;;;;;;2272848;61;1417;-84
2021/12/10 07:21:33;246582.00;0.82;426.07;0.00;0.00;0.62;;;;;5.60;1.00;;;;;;2263870;61;1086;-85
2021/12/10 07:24:04;52106.00;0.17;90.83;0.00;0.00;0.62;;;;;6.50;1.00;;;;;;2262575;61;1026;-85
2021/12/10 07:26:31;53165.00;0.18;92.66;0.00;0.00;0.62;;;;;7.80;1.00;;;;;;2251479;61;1328;-85
2021/12/10 07:28:59;210300.00;0.70;363.65;0.00;0.00;0.62;;;;;8.60;1.00;;;;;;2258125;61;1188;-85
2021/12/10 07:31:27;214493.00;0.71;370.87;0.00;0.00;0.62;;;;;8.50;1.00;;;;;;2252204;61;2197;-86
2021/12/10 07:33:55;175183.00;0.58;303.19;0.00;0.00;0.62;;;;;8.00;1.00;;;;;;2259958;61;1138;-85
2021/12/10 07:44:12;558539.00;1.86;962.68;0.00;0.00;0.62;;;;;6.90;1.00;;;;;;2469715;40;2173;31
2021/12/10 07:49:15;172035.00;0.57;297.77;0.00;0.00;0.62;;;;;6.50;1.00;;;;;;2268871;61;1424;-85
2021/12/10 07:51:44;183733.00;0.61;317.92;36620.00;0.12;64.04;;;;;6.90;1.00;;;;;;2260839;61;1152;-85
2021/12/10 07:54:12;80381.00;0.27;139.70;0.00;0.00;0.62;;;;;7.30;1.00;;;;;;2267886;61;1014;-86
2021/12/10 08:14:04;411636.00;1.37;709.81;0.00;0.00;0.62;;;;;6.90;1.00;;;;;;2276930;61;1394;-85
2021/12/10 08:18:59;176356.00;0.59;305.21;0.00;0.00;0.62;;;;;7.20;1.00;;;;;;2276697;61;1421;-86
2021/12/10 08:21:26;182984.00;0.61;316.63;0.00;0.00;0.62;;;;;7.30;1.00;;;;;;2275855;60;1025;-89
2021/12/10 08:23:54;40762.00;0.14;71.21;0.00;0.00;0.62;;;;;7.50;1.00;;;;;;2275871;60;1932;-89
2021/12/10 08:26:21;49228.00;0.16;85.85;0.00;0.00;0.62;;;;;7.40;1.00;;;;;;2263136;61;1308;-87
2021/12/10 08:28:48;143334.00;0.48;248.32;0.00;0.00;0.62;;;;;7.50;1.00;;;;;;2259855;61;976;-88
2021/12/10 08:31:17;49771.00;0.17;86.79;0.00;0.00;0.62;;;;;7.90;1.00;;;;;;2259921;61;969;-89
2021/12/10 08:33:48;53074.00;0.18;92.50;0.00;0.00;0.62;;;;;7.60;1.00;;;;;;2259888;61;1064;-87
2021/12/10 08:36:17;130047.00;0.43;225.41;0.00;0.00;0.62;;;;;7.30;1.00;;;;;;2263263;61;1469;-87
2021/12/10 08:38:45;15542.00;0.05;27.55;0.00;0.00;0.62;;;;;7.00;1.00;;;;;;2259848;61;925;-88
2021/12/10 08:41:15;12753.00;0.04;22.72;0.00;0.00;0.62;;;;;7.30;1.00;;;;;;2263119;61;1060;-86
2021/12/10 08:43:42;10235.00;0.03;18.36;0.00;0.00;0.62;;;;;7.30;1.00;;;;;;2265620;60;1920;-88
2021/12/10 08:46:11;107389.00;0.36;186.32;0.00;0.00;0.62;;;;;7.30;1.00;;;;;;2268613;60;1344;-87
2021/12/10 08:48:40;43720.00;0.15;76.32;0.00;0.00;0.62;;;;;7.70;1.00;;;;;;2275764;60;1035;-88
2021/12/10 08:51:09;51554.00;0.17;89.87;0.00;0.00;0.62;;;;;8.30;1.00;;;;;;2268648;60;943;-87
2021/12/10 08:53:36;22829.00;0.08;40.17;0.00;0.00;0.62;;;;;8.60;1.00;;;;;;2275126;60;945;-89
2021/12/10 08:56:04;99724.00;0.33;173.10;22222.00;0.07;39.12;;;;;8.60;1.00;;;;;;2268437;61;984;-88
2021/12/10 08:58:32;30418.00;0.10;53.31;0.00;0.00;0.62;;;;;8.00;1.00;;;;;;2265132;61;1613;-88
2021/12/10 09:01:04;96493.00;0.32;167.52;0.00;0.00;0.62;;;;;7.60;1.00;;;;;;2258516;61;1009;-87
2021/12/10 09:03:32;83293.00;0.28;144.73;0.00;0.00;0.62;;;;;7.60;1.00;;;;;;2261842;61;2006;-87
2021/12/10 09:06:01;38885.00;0.13;67.96;0.00;0.00;0.62;;;;;7.20;1.00;;;;;;2265157;61;1016;-88
2021/12/10 09:08:28;84292.00;0.28;146.45;0.00;0.00;0.62;;;;;7.00;1.00;;;;;;2264365;61;1417;-87
2021/12/10 09:10:55;191774.00;0.64;331.76;31892.00;0.11;55.86;;;;;7.10;1.00;;;;;;2257769;61;1012;-86
2021/12/10 09:13:24;64930.00;0.22;113.00;0.00;0.00;0.62;;;;;7.30;1.00;;;;;;2257047;61;940;-88
2021/12/10 09:15:56;122847.00;0.41;212.99;0.00;0.00;0.62;;;;;7.20;1.00;;;;;;2256764;61;1018;-86
2021/12/10 09:18:24;54990.00;0.18;95.82;0.00;0.00;0.62;;;;;7.30;1.00;;;;;;2263557;61;1419;-87
2021/12/10 09:28:25;594922.00;1.98;1025.45;0.00;0.00;0.62;;;;;8.60;1.00;;;;;;2202535;40;2360;-86
2021/12/10 09:30:55;554770.00;1.85;956.18;0.00;0.00;0.62;;;;;8.90;1.00;;;;;;2269756;61;1227;-85
2021/12/10 09:33:23;0.00;0.00;0.62;0.00;0.00;0.62;;;;;9.40;1.00;;;;;;2260972;61;1076;-85
2021/12/10 09:43:13;66225.00;0.22;115.24;0.00;0.00;0.62;;;;;8.10;1.00;;;;;;2270501;61;1898;-89
2021/12/10 09:45:44;45607.00;0.15;79.59;0.00;0.00;0.62;;;;;7.80;1.00;;;;;;2265104;61;1032;-88
2021/12/10 09:48:16;79559.00;0.27;138.28;0.00;0.00;0.62;;;;;8.10;1.00;;;;;;2268025;61;1441;-87
2021/12/10 09:50:49;7535.00;0.03;13.68;0.00;0.00;0.62;;;;;8.40;1.00;;;;;;2261734;61;997;-88
2021/12/10 09:53:17;18031.00;0.06;31.86;0.00;0.00;0.62;;;;;8.30;1.00;;;;;;2268001;61;1166;-89
2021/12/10 09:55:46;66041.00;0.22;114.92;0.00;0.00;0.62;;;;;8.30;1.00;;;;;;2268312;61;1176;-87
2021/12/10 09:58:14;130953.00;0.44;226.97;7644.00;0.03;13.87;;;;;8.50;1.00;;;;;;2261689;61;1264;-88
2021/12/10 10:00:46;14735.00;0.05;26.15;0.00;0.00;0.62;;;;;8.40;1.00;;;;;;2268273;61;1525;-88
2021/12/10 10:03:17;140774.00;0.47;243.91;0.00;0.00;0.62;;;;;8.30;1.00;;;;;;2268392;61;1916;-87
2021/12/10 10:05:45;45112.00;0.15;78.73;0.00;0.00;0.62;;;;;8.40;1.00;;;;;;2261493;61;1031;-87
2021/12/10 10:08:15;131421.00;0.44;227.78;0.00;0.00;0.62;;;;;8.50;1.00;;;;;;2268390;61;1368;-87
2021/12/10 10:10:47;17845.00;0.06;31.54;0.00;0.00;0.62;;;;;8.90;1.00;;;;;;2268669;61;1027;-84
2021/12/10 10:13:16;44248.00;0.15;77.24;0.00;0.00;0.62;;;;;9.30;1.00;;;;;;2258414;61;1000;-86
2021/12/10 10:15:47;21565.00;0.07;37.98;0.00;0.00;0.62;;;;;9.40;1.00;;;;;;2258311;61;997;-86
2021/12/10 10:18:16;87552.00;0.29;152.08;0.00;0.00;0.62;;;;;9.50;1.00;;;;;;2268362;61;1352;-85
2021/12/10 10:20:47;55325.00;0.18;96.39;0.00;0.00;0.62;;;;;9.80;1.00;;;;;;2256067;61;981;-86
2021/12/10 10:23:15;38890.00;0.13;67.97;0.00;0.00;0.62;;;;;9.80;1.00;;;;;;2249524;61;1920;-86
2021/12/10 10:25:45;0.00;0.00;0.62;0.00;0.00;0.62;;;;;9.90;1.00;;;;;;2256192;61;1151;-86
2021/12/10 10:28:14;33477.00;0.11;58.60;0.00;0.00;0.62;;;;;10.10;1.00;;;;;;2256172;61;1489;-86
2021/12/10 10:30:52;17947.00;0.06;31.71;0.00;0.00;0.62;;;;;10.30;1.00;;;;;;2252848;61;1000;-85
2021/12/10 10:33:19;2599.00;0.01;5.12;0.00;0.00;0.62;;;;;10.20;1.00;;;;;;2252861;61;963;-86
2021/12/10 10:35:50;58981.00;0.20;102.72;0.00;0.00;0.62;;;;;10.70;1.00;;;;;;2256116;61;1046;-85
2021/12/10 10:38:17;60221.00;0.20;104.86;0.00;0.00;0.62;;;;;10.70;1.00;;;;;;2259568;61;1481;-87
2021/12/10 10:40:54;71679.00;0.24;124.66;0.00;0.00;0.62;;;;;11.00;1.00;;;;;;2261578;61;1010;-87
2021/12/10 10:43:22;97552.00;0.33;169.35;0.00;0.00;0.62;;;;;10.80;1.00;;;;;;2261541;61;2000;-87
2021/12/10 10:45:51;13292.00;0.04;23.65;0.00;0.00;0.62;;;;;10.80;1.00;;;;;;2260010;61;959;-87
2021/12/10 10:48:19;40317.00;0.13;70.44;0.00;0.00;0.62;;;;;10.70;1.00;;;;;;2260062;61;1380;-85
2021/12/10 10:50:51;29572.00;0.10;51.84;0.00;0.00;0.62;;;;;10.60;1.00;;;;;;2253434;61;1058;-85
2021/12/10 10:53:22;15833.00;0.05;28.05;0.00;0.00;0.62;;;;;10.50;1.00;;;;;;2252070;61;985;-85
2021/12/10 10:55:54;22865.00;0.08;40.23;0.00;0.00;0.62;;;;;10.50;1.00;;;;;;2252156;61;1034;-85
2021/12/10 10:58:25;34040.00;0.11;59.58;0.00;0.00;0.62;;;;;10.50;1.00;;;;;;2252083;61;1465;-87
2021/12/10 11:01:02;20776.00;0.07;36.61;0.00;0.00;0.62;;;;;10.60;1.00;;;;;;2245443;61;1129;-87
2021/12/10 11:03:38;103843.00;0.35;180.20;0.00;0.00;0.62;;;;;10.20;1.00;;;;;;2253293;61;2001;-86
2021/12/10 11:06:08;65568.00;0.22;114.10;0.00;0.00;0.62;;;;;9.60;1.00;;;;;;2256034;61;1258;-88
2021/12/10 11:08:39;41198.00;0.14;71.96;0.00;0.00;0.62;;;;;9.30;1.00;;;;;;2256070;61;1012;-85
2021/12/10 11:11:10;51084.00;0.17;89.06;0.00;0.00;0.62;;;;;9.20;1.00;;;;;;2260682;61;1579;-88
2021/12/10 11:39:42;119778.00;0.40;207.70;0.00;0.00;0.62;;;;;7.50;1.00;;;;;;2274384;61;1280;-87
2021/12/10 11:42:33;136205.00;0.45;236.03;0.00;0.00;0.62;;;;;7.70;1.00;;;;;;2272516;61;1037;-87
2021/12/10 11:45:17;188806.00;0.63;326.65;93933.00;0.31;163.10;;;;;8.10;1.00;;;;;;2272404;61;1934;-87
2021/12/10 11:47:48;110848.00;0.37;192.29;0.00;0.00;0.62;;;;;8.30;1.00;;;;;;2269527;61;1783;-88
2021/12/10 11:50:21;84761.00;0.28;147.26;0.00;0.00;0.62;;;;;8.20;1.00;;;;;;2268484;61;1270;-88
2021/12/10 11:53:01;48292.00;0.16;84.23;0.00;0.00;0.62;;;;;8.50;1.00;;;;;;2268469;61;1111;-87
2021/12/10 11:55:32;116199.00;0.39;201.53;0.00;0.00;0.62;;;;;8.60;1.00;;;;;;2268435;61;1083;-86
2021/12/10 11:57:59;84304.00;0.28;146.47;0.00;0.00;0.62;;;;;8.60;1.00;;;;;;2268375;61;1571;-86
2021/12/10 12:00:29;183637.00;0.61;317.75;0.00;0.00;0.62;;;;;8.70;1.00;;;;;;2268459;61;935;-85
2021/12/10 12:03:00;31089.00;0.10;54.47;0.00;0.00;0.62;;;;;8.90;1.00;;;;;;2268385;61;1919;-86
2021/12/10 12:05:30;89429.00;0.30;155.32;0.00;0.00;0.62;;;;;9.00;1.00;;;;;;2267918;61;1036;-86
2021/12/10 12:08:00;100785.00;0.34;174.93;0.00;0.00;0.62;;;;;9.00;1.00;;;;;;2268374;61;1382;-86
2021/12/10 12:10:37;60013.00;0.20;104.50;0.00;0.00;0.62;;;;;9.10;1.00;;;;;;2268408;61;1199;-85
2021/12/10 12:13:12;44985.00;0.15;78.51;0.00;0.00;0.62;;;;;9.10;1.00;;;;;;2268378;61;1127;-85
2021/12/10 12:15:41;23637.00;0.08;41.57;0.00;0.00;0.62;;;;;9.00;1.00;;;;;;2268274;61;1035;-87
2021/12/10 12:18:14;88352.00;0.29;153.46;0.00;0.00;0.62;;;;;9.20;1.00;;;;;;2268251;61;1454;-85
2021/12/10 12:20:46;50933.00;0.17;88.80;0.00;0.00;0.62;;;;;9.30;1.00;;;;;;2268371;61;1252;-86
2021/12/10 12:26:08;159673.00;0.53;276.48;0.00;0.00;0.62;;;;;9.40;1.00;;;;;;2268295;61;719;-85
2021/12/10 12:28:38;19571.00;0.07;34.53;0.00;0.00;0.62;;;;;9.70;1.00;;;;;;2268352;61;1137;-86
2021/12/10 12:31:09;42449.00;0.14;74.13;0.00;0.00;0.62;;;;;9.50;1.00;;;;;;2269062;61;1016;-87
2021/12/10 12:33:57;6216.00;0.02;11.39;0.00;0.00;0.62;;;;;9.40;1.00;;;;;;2268691;61;1150;-86
2021/12/10 12:36:27;265314.00;0.88;458.29;0.00;0.00;0.62;;;;;9.20;1.00;;;;;;2268725;61;1669;-86
2021/12/10 12:38:54;78186.00;0.26;135.90;0.00;0.00;0.62;;;;;9.30;1.00;;;;;;2269005;61;1118;-87
2021/12/10 12:41:26;208963.00;0.70;361.35;0.00;0.00;0.62;;;;;8.80;1.00;;;;;;2268993;61;1064;-86
2021/12/10 12:44:12;75979.00;0.25;132.09;0.00;0.00;0.62;;;;;8.90;1.00;;;;;;2268948;61;1986;-85
2021/12/10 12:46:56;43907.00;0.15;76.65;0.00;0.00;0.62;;;;;9.00;1.00;;;;;;2268961;61;1454;-87
2021/12/10 12:49:25;88622.00;0.30;153.93;0.00;0.00;0.62;;;;;8.80;1.00;;;;;;2268999;61;1040;-86
2021/12/10 12:52:08;29629.00;0.10;51.94;0.00;0.00;0.62;;;;;9.00;1.00;;;;;;2268905;61;1065;-85
2021/12/10 12:54:38;22487.00;0.07;39.58;0.00;0.00;0.62;;;;;9.20;1.00;;;;;;2268889;61;1079;-86
2021/12/10 12:57:10;52996.00;0.18;92.37;0.00;0.00;0.62;;;;;9.00;1.00;;;;;;2268893;61;1383;-86
2021/12/10 12:59:37;138527.00;0.46;240.03;0.00;0.00;0.62;;;;;9.10;1.00;;;;;;2268938;61;1707;-87
2021/12/10 13:02:09;51519.00;0.17;89.81;0.00;0.00;0.62;;;;;9.10;1.00;;;;;;2268924;61;1146;-86
2021/12/10 13:04:44;29185.00;0.10;51.17;0.00;0.00;0.62;;;;;9.30;1.00;;;;;;2268678;61;2003;-86
2021/12/10 13:07:15;29613.00;0.10;51.91;0.00;0.00;0.62;;;;;9.30;1.00;;;;;;2268906;61;1289;-87
2021/12/10 13:09:48;37734.00;0.13;65.97;0.00;0.00;0.62;;;;;9.60;1.00;;;;;;2268904;61;1003;-87
2021/12/10 13:12:32;54312.00;0.18;94.64;0.00;0.00;0.62;;;;;9.40;1.00;;;;;;2268702;61;949;-87
2021/12/10 13:15:02;135486.00;0.45;234.79;13878.00;0.05;24.67;;;;;9.40;1.00;;;;;;2268886;61;1072;-87
2021/12/10 13:19:59;622624.00;2.08;1073.30;0.00;0.00;0.62;;;;;9.60;1.00;;;;;;2275307;61;1326;-89
2021/12/10 14:14:58;558213.00;1.86;962.12;0.00;0.00;0.62;;;;;9.00;1.00;;;;;;2494799;55;2033;31
2021/12/10 15:32:16;364076.00;1.21;628.05;85452.00;0.28;148.45;;;;;7.40;1.00;;;;;;2270884;61;1050;-87
2021/12/10 15:34:48;448696.00;1.50;773.54;95397.00;0.32;165.63;;;;;7.20;1.00;;;;;;2268202;61;1059;-86
2021/12/10 15:37:18;401884.00;1.34;693.04;95458.00;0.32;165.73;;;;;7.40;1.00;;;;;;2268522;61;1466;-86
2021/12/10 15:39:50;348756.00;1.16;601.72;89937.00;0.30;156.20;;;;;7.80;1.00;;;;;;2261457;61;1002;-87
2021/12/10 15:42:21;450851.00;1.50;777.25;93169.00;0.31;161.78;;;;;8.00;1.00;;;;;;2258110;61;915;-88
2021/12/10 15:44:49;402441.00;1.34;694.00;91315.00;0.30;158.58;;;;;8.40;1.00;;;;;;2261404;61;2001;-88
2021/12/10 15:47:20;390755.00;1.30;673.91;93910.00;0.31;163.06;;;;;8.50;1.00;;;;;;2258044;61;1406;-88
2021/12/10 15:49:49;373530.00;1.25;644.30;99769.00;0.33;173.17;;;;;8.40;1.00;;;;;;2268419;61;1139;-86
2021/12/10 15:52:18;420024.00;1.40;724.23;98228.00;0.33;170.51;;;;;7.90;1.00;;;;;;2268446;61;1019;-88
2021/12/10 15:54:51;317543.00;1.06;548.07;91030.00;0.30;158.09;;;;;7.70;1.00;;;;;;2268049;61;1036;-88
2021/12/10 15:57:21;355170.00;1.18;612.75;95820.00;0.32;166.36;;;;;7.50;1.00;;;;;;2263840;61;1332;-88
2021/12/10 15:59:57;120656480.00;402.19;71156200.00;102739.00;0.34;178.30;;;;;7.70;1.00;;;;;;2263950;61;1119;-88
2021/12/10 16:02:26;476418.00;1.59;821.23;88487.00;0.29;153.70;;;;;8.00;1.00;;;;;;2263963;61;1104;-86
2021/12/10 16:05:01;342121.00;1.14;590.32;96993.00;0.32;168.38;;;;;8.30;1.00;;;;;;2260939;61;1996;-88
2021/12/10 16:07:31;583024.00;1.94;1004.92;101648.00;0.34;176.42;;;;;8.30;1.00;;;;;;2264621;61;1426;-88
2021/12/10 16:10:04;749092.00;2.50;1292.48;91590.00;0.31;159.05;;;;;7.80;1.00;;;;;;2264557;61;1076;-87
2021/12/10 16:12:31;775248.00;2.58;1337.99;98049.00;0.33;170.20;;;;;7.60;1.00;;;;;;2264663;61;1164;-86
2021/12/10 16:15:06;696915.00;2.32;1201.89;134675.00;0.45;233.39;;;;;7.40;1.00;;;;;;2266140;61;1616;-87
2021/12/10 16:17:35;731109.00;2.44;1261.23;93383.00;0.31;162.15;;;;;7.60;1.00;;;;;;2268792;61;1447;-88
2021/12/10 16:20:03;459333.00;1.53;791.84;93232.00;0.31;161.89;;;;;7.60;1.00;;;;;;2269102;61;1079;-86
2021/12/10 16:22:33;461754.00;1.54;796.00;108397.00;0.36;188.06;;;;;7.80;1.00;;;;;;2269048;61;1009;-86
2021/12/10 16:25:04;408776.00;1.36;704.89;94929.00;0.32;164.82;;;;;7.70;1.00;;;;;;2269022;61;2016;-88
2021/12/10 16:27:34;386371.00;1.29;666.38;81184.00;0.27;141.08;;;;;7.50;1.00;;;;;;2268979;61;1544;-87
2021/12/10 16:30:09;493807.00;1.65;851.16;94897.00;0.32;164.76;;;;;7.30;1.00;;;;;;2268911;61;1083;-87
2021/12/10 16:32:42;700123.00;2.33;1207.45;100481.00;0.33;174.40;;;;;7.00;1.00;;;;;;2268954;61;948;-86
2021/12/10 16:35:14;917348.00;3.06;1586.61;117153.00;0.39;203.17;;;;;7.10;1.00;;;;;;2258681;61;1001;-87
2021/12/10 16:37:42;832448.00;2.77;1437.77;141856.00;0.47;245.77;;;;;6.90;1.00;;;;;;2268965;61;1427;-87
2021/12/10 16:40:15;889483.00;2.96;1537.66;104548.00;0.35;181.42;;;;;7.20;1.00;;;;;;2268946;61;1298;-87
2021/12/10 16:42:46;936724.00;3.12;1620.71;79100.00;0.26;137.48;;;;;7.60;1.00;;;;;;2268910;61;1055;-87
2021/12/10 16:45:14;859454.00;2.86;1485.02;96420.00;0.32;167.39;;;;;7.70;1.00;;;;;;2268683;61;2008;-87
2021/12/10 16:47:46;468643.00;1.56;807.85;101380.00;0.34;175.95;;;;;7.50;1.00;;;;;;2268934;61;1402;-86
2021/12/10 16:50:15;678015.00;2.26;1169.13;81315.00;0.27;141.31;;;;;7.40;1.00;;;;;;2268955;61;1140;-87
2021/12/10 16:52:42;582346.00;1.94;1003.75;94218.00;0.31;163.59;;;;;7.10;1.00;;;;;;2268906;61;1120;-88
2021/12/10 16:55:13;117872264.00;392.91;66338868.00;105174.00;0.35;182.50;;;;;7.40;1.00;;;;;;2268954;61;1041;-87
2021/12/10 16:57:41;637213.00;2.12;1098.52;121575.00;0.41;210.80;;;;;7.50;1.00;;;;;;2269012;61;1427;-86
2021/12/10 17:00:17;494229.00;1.65;851.89;105494.00;0.35;183.05;;;;;7.40;1.00;;;;;;2268761;61;1006;-88
2021/12/10 17:02:48;657167.00;2.19;1133.04;101961.00;0.34;176.96;;;;;7.10;1.00;;;;;;2268908;61;1022;-88
2021/12/10 17:05:20;122834328.00;409.45;75083016.00;141076.00;0.47;244.43;;;;;7.20;1.00;;;;;;2268857;61;1996;-87